Flight Track Log - Related Links

Times and Time Zones

All times are in EDT time to prevent confusion due to time zone crossing. See the SWA750 flight status page for this flight to view local times or setup timezone preferences in your user account.

Time Position Orientation Groundspeed Altitude Reporting Facility
EDT Latitude Longitude Course Direction KTS MPH feet Rate Location/Type
Fri 12:03:42 AM 39.8167 -104.6667 237° Southwest 172 198 6,900  Level Denver TRACON
Fri 12:05:00 AM 39.7565 -104.8431 247° West  Level Estimated
Fri 12:05:42 AM 39.7500 -104.8000 247° West 284 327 10,000  Level Denver TRACON
Fri 12:06:12 AM 39.7589 -104.8492 283° West 282 325 10,000 1,055 Level Denver Center
Fri 12:07:13 AM 39.7653 -104.9661 274° West 320 368 11,600 2,311 Climbing Denver Center
Fri 12:08:14 AM 39.7417 -105.0944 257° West 360 414 14,700 3,000 Climbing Denver Center
Fri 12:09:15 AM 39.6986 -105.2161 245° Southwest 372 428 17,700 2,656 Climbing Denver Center
Fri 12:10:16 AM 39.6522 -105.3444 245° Southwest 397 457 20,100 2,262 Climbing Denver Center
Fri 12:11:17 AM 39.6039 -105.4758 245° Southwest 407 468 22,300 2,164 Climbing Denver Center
Fri 12:12:18 AM 39.5542 -105.6092 244° Southwest 427 491 24,500 2,066 Climbing Denver Center
Fri 12:13:19 AM 39.5117 -105.7561 249° West 433 498 26,500 1,707 Climbing Denver Center
Fri 12:14:21 AM 39.4731 -105.9058 252° West 434 499 28,000 1,415 Climbing Denver Center
Fri 12:15:22 AM 39.4297 -106.0600 250° West 449 517 29,400 1,721 Climbing Denver Center
Fri 12:16:23 AM 39.3744 -106.2356 248° West 459 528 31,500 2,115 Climbing Denver Center
Fri 12:17:24 AM 39.3094 -106.3722 238° Southwest 463 533 33,700 1,230 Climbing Denver Center
Fri 12:18:25 AM 39.2381 -106.5286 240° Southwest 456 525 34,000 148 Climbing Denver Center
Fri 12:19:26 AM 39.1753 -106.6633 239° Southwest 457 526 34,000  Level Denver Center
Fri 12:20:27 AM 39.1133 -106.7981 239° Southwest 457 526 34,000  Level Denver Center
Fri 12:21:29 AM 39.0383 -106.9564 239° Southwest 461 531 34,000  Level Denver Center
Fri 12:22:30 AM 38.9758 -107.0900 239° Southwest 458 527 34,000  Level Denver Center
Fri 12:23:31 AM 38.9131 -107.2242 239° Southwest 457 526 34,000  Level Denver Center
Fri 12:24:32 AM 38.8381 -107.3814 239° Southwest 461 531 34,000  Level Denver Center
Fri 12:25:33 AM 38.7744 -107.5181 239° Southwest 464 534 34,000  Level Denver Center
Fri 12:26:34 AM 38.7086 -107.6536 238° Southwest 466 536 34,000  Level Denver Center
Fri 12:27:35 AM 38.6339 -107.8092 238° Southwest 462 532 34,000  Level Denver Center
Fri 12:28:36 AM 38.5703 -107.9425 239° Southwest 458 527 34,000  Level Denver Center
Fri 12:29:37 AM 38.5064 -108.0767 239° Southwest 460 529 34,000  Level Denver Center
Fri 12:30:38 AM 38.4311 -108.2300 238° Southwest 457 526 34,000  Level Denver Center
Fri 12:31:39 AM 38.3667 -108.3617 238° Southwest 457 526 34,000  Level Denver Center
Fri 12:32:40 AM 38.2917 -108.5158 238° Southwest 457 526 34,000  Level Denver Center
Fri 12:33:41 AM 38.2264 -108.6494 238° Southwest 462 532 34,000  Level Denver Center
Fri 12:34:42 AM 38.1617 -108.7800 238° Southwest 458 527 34,000  Level Denver Center
Fri 12:35:43 AM 38.0850 -108.9339 238° Southwest 460 529 34,000  Level Denver Center
Fri 12:36:45 AM 38.0161 -109.0700 237° Southwest 454 522 34,000  Level Denver Center
Fri 12:37:46 AM 37.9503 -109.2014 238° Southwest 461 531 34,000  Level Denver Center
Fri 12:38:47 AM 37.8847 -109.3311 237° Southwest 460 529 34,000  Level Denver Center
Fri 12:39:48 AM 37.8086 -109.4831 238° Southwest 459 528 34,000  Level Denver Center
Fri 12:40:49 AM 37.7428 -109.6119 237° Southwest 457 526 34,000  Level Denver Center
Fri 12:41:50 AM 37.6656 -109.7644 237° Southwest 461 531 34,000  Level Denver Center
Fri 12:42:51 AM 37.5983 -109.8961 237° Southwest 467 537 34,000  Level Denver Center
Fri 12:43:52 AM 37.5317 -110.0256 237° Southwest 463 533 34,000  Level Denver Center
Fri 12:44:53 AM 37.4542 -110.1758 237° Southwest 459 528 34,000  Level Denver Center
Fri 12:45:54 AM 37.3931 -110.2953 237° Southwest 459 528 34,000  Level Denver Center
Fri 12:46:55 AM 37.3239 -110.4283 237° Southwest 456 525 34,000  Level Denver Center
Fri 12:47:56 AM 37.2536 -110.5622 237° Southwest 458 527 34,000  Level Denver Center
Fri 12:48:57 AM 37.1839 -110.6967 237° Southwest 459 528 34,000  Level Denver Center
Fri 12:49:58 AM 37.1003 -110.8567 237° Southwest 458 527 34,000  Level Denver Center
Fri 12:50:59 AM 37.0286 -110.9908 236° Southwest 462 532 34,000  Level Denver Center
Fri 12:52:00 AM 36.9564 -111.1253 236° Southwest 464 534 34,000  Level Denver Center
Fri 12:53:01 AM 36.8872 -111.2578 237° Southwest 457 526 34,000  Level Denver Center
Fri 12:54:02 AM 36.8186 -111.3883 237° Southwest 452 520 34,000  Level Denver Center
Fri 12:55:03 AM 36.7464 -111.5222 236° Southwest 457 526 34,000  Level Denver Center
Fri 12:56:04 AM 36.6733 -111.6561 236° Southwest 464 534 34,000  Level Denver Center
Fri 12:57:04 AM 36.6006 -111.7900 236° Southwest 465 535 34,000  Level Denver Center
Fri 12:58:05 AM 36.5281 -111.9233 236° Southwest 465 535 34,000  Level Denver Center
Fri 12:58:31 AM 36.4978 -111.9781 235° Southwest 461 531 34,000  Level Los Angeles Center
Fri 12:59:33 AM 36.4397 -112.0850 236° Southwest 463 533 34,000  Level Los Angeles Center
Fri 01:00:34 AM 36.3531 -112.2431 236° Southwest 462 532 34,000  Level Los Angeles Center
Fri 01:01:36 AM 36.2675 -112.3994 236° Southwest 457 526 34,000  Level Los Angeles Center
Fri 01:02:37 AM 36.1953 -112.5292 235° Southwest 457 526 34,000  Level Los Angeles Center
Fri 01:03:39 AM 36.1228 -112.6603 236° Southwest 459 528 34,000  Level Los Angeles Center
Fri 01:04:40 AM 36.0500 -112.7900 235° Southwest 460 529 34,000  Level Los Angeles Center
Fri 01:05:42 AM 35.9781 -112.9200 236° Southwest 459 528 34,000  Level Los Angeles Center
Fri 01:06:43 AM 35.9011 -113.0539 235° Southwest 461 531 34,000  Level Los Angeles Center
Fri 01:07:45 AM 35.8297 -113.1822 236° Southwest 459 528 34,000  Level Los Angeles Center
Fri 01:08:46 AM 35.7725 -113.2839 235° Southwest 457 526 34,000  Level Los Angeles Center
Fri 01:10:00 AM 35.6856 -113.4232 233° Southwest  Level FlightAware Approximate
Fri 01:11:51 AM 35.5506 -113.7278 243° Southwest 452 520 34,000  Level Los Angeles Center
Fri 01:12:52 AM 35.4953 -113.8631 243° Southwest 449 517 34,000  Level Los Angeles Center
Fri 01:13:53 AM 35.4517 -113.9714 244° Southwest 448 516 34,000  Level Los Angeles Center
Fri 01:14:55 AM 35.3811 -114.1428 243° Southwest 453 521 34,000  Level Los Angeles Center
Fri 01:15:57 AM 35.3253 -114.2786 242° Southwest 447 514 34,000  Level Los Angeles Center
Fri 01:16:00 AM 35.3215 -114.2779 242° Southwest  Level FlightAware Approximate
Fri 01:16:58 AM 35.2692 -114.4144 243° Southwest 446 513 34,000  Level Los Angeles Center
Fri 01:17:00 AM 35.3007 -114.2960 243° Southwest  Level FlightAware Approximate
Fri 01:18:00 AM 35.2128 -114.5506 243° Southwest 447 514 34,000  Level Los Angeles Center
Fri 01:19:01 AM 35.1558 -114.6875 243° Southwest 451 519 34,000  Level Los Angeles Center
Fri 01:20:03 AM 35.0872 -114.8514 243° Southwest 452 520 34,000  Level Los Angeles Center
Fri 01:21:04 AM 35.0308 -114.9869 243° Southwest 447 514 34,000  Level Los Angeles Center
Fri 01:22:06 AM 34.9733 -115.1208 242° Southwest 445 512 34,000  Level Los Angeles Center
Fri 01:23:07 AM 34.9175 -115.2558 243° Southwest 445 512 34,000  Level Los Angeles Center
Fri 01:24:08 AM 34.8606 -115.3878 242° Southwest 441 507 34,000  Level Los Angeles Center
Fri 01:25:10 AM 34.8039 -115.5217 243° Southwest 444 511 34,000 -98 Level Los Angeles Center
Fri 01:26:11 AM 34.7522 -115.6414 242° Southwest 444 511 33,800 -634 Descending Los Angeles Center
Fri 01:27:13 AM 34.6831 -115.8050 243° Southwest 451 519 32,700 -878 Descending Los Angeles Center
Fri 01:28:14 AM 34.6222 -115.9411 242° Southwest 456 525 32,000 -341 Descending Los Angeles Center
Fri 01:29:16 AM 34.5619 -116.0814 242° Southwest 465 535 32,000  Level Los Angeles Center
Fri 01:30:18 AM 34.5017 -116.2197 242° Southwest 466 536 32,000  Level Los Angeles Center
Fri 01:31:19 AM 34.4408 -116.3578 242° Southwest 463 533 32,000 -1,377 Level Los Angeles Center
Fri 01:32:20 AM 34.3806 -116.4961 242° Southwest 464 534 29,200 -2,732 Descending Los Angeles Center
Fri 01:33:22 AM 34.3200 -116.6308 241° Southwest 457 526 26,400 -2,634 Descending Los Angeles Center
Fri 01:34:23 AM 34.2614 -116.7633 242° Southwest 448 516 23,800 -2,244 Descending Los Angeles Center
Fri 01:35:25 AM 34.2044 -116.8911 242° Southwest 434 499 21,800 -2,049 Descending Los Angeles Center
Fri 01:36:26 AM 34.1425 -117.0292 242° Southwest 389 448 19,600 -1,824 Descending Los Angeles Center
Fri 01:37:07 AM 34.1167 -117.1000 246° West 354 407 18,700 -1,326 Descending Southern California TRACON
Fri 01:38:01 AM 34.0667 -117.2000 239° Southwest 337 388 17,500 -1,084 Descending Southern California TRACON
Fri 01:39:42 AM 34.0392 -117.3333 256° West 314 361 15,900 -1,190 Descending Los Angeles Center
Fri 01:40:07 AM 34.0333 -117.4000 264° West 306 352 15,000 -1,694 Descending Southern California TRACON
Fri 01:41:07 AM 34.0333 -117.5167 270° West 292 336 13,500 -1,835 Descending Southern California TRACON
Fri 01:42:08 AM 34.0333 -117.6167 270° West 298 343 11,300 -1,835 Descending Southern California TRACON
Fri 01:43:08 AM 34.0167 -117.7167 259° West 285 328 9,800 -1,400 Descending Southern California TRACON
Fri 01:44:08 AM 34.0167 -117.8000 270° West 283 326 8,500 -1,316 Descending Southern California TRACON
Fri 01:45:02 AM 34.0000 -117.9000 259° West 280 322 7,300 -1,150 Descending Southern California TRACON
Fri 01:46:08 AM 34.0000 -117.9833 270° West 259 298 6,200 -950 Descending Southern California TRACON
Fri 01:47:02 AM 33.9833 -118.0667 256° West 236 272 5,400 -895 Descending Southern California TRACON
Fri 01:48:02 AM 33.9833 -118.1333 270° West 232 267 4,500 -703 Descending Southern California TRACON
Fri 01:48:53 AM 33.9742 -118.1869 258° West 219 252 4,100 -857 Descending Los Angeles Center
Fri 01:49:54 AM 33.9692 -118.2464 264° West 187 215 2,900 -1,180 Descending Los Angeles Center
Fri 01:50:55 AM 33.9628 -118.3036 262° West 180 207 1,700 -1,082 Descending Los Angeles Center
Fri 01:51:56 AM 33.9567 -118.3664 263° West 168 193 700 -780 Descending Los Angeles Center
Fri 01:52:58 AM 33.9525 -118.4064 263° West 160 184 100 -581 Descending Los Angeles Center
Fri 01:54:00 AM 33.9425 -118.4081 259° West  Level Estimated
Fri 02:01:00 AM 33.9425 -118.4081 259° West  Level Estimated

Login

Don't have an account? Register now (free) for customized features, flight alerts, and more!